createdAt,value
2023-03-21T00:04:33.223Z,6.68
2023-03-21T00:09:41.054Z,6.65
2023-03-21T00:14:45.163Z,6.64
2023-03-21T00:19:50.518Z,6.67
2023-03-21T00:24:55.673Z,6.68
2023-03-21T00:29:58.625Z,6.63
2023-03-21T00:35:31.618Z,6.56
2023-03-21T00:40:29.383Z,6.55
2023-03-21T00:45:36.013Z,6.54
2023-03-21T00:50:40.382Z,6.52
2023-03-21T00:55:43.154Z,6.51
2023-03-21T01:00:49.266Z,6.51
2023-03-21T01:06:05.878Z,6.54
2023-03-21T01:11:10.518Z,6.54
2023-03-21T01:16:13.445Z,6.47
2023-03-21T01:21:16.941Z,6.42
2023-03-21T01:26:20.329Z,6.40
2023-03-21T01:31:23.242Z,6.40
2023-03-21T01:36:26.883Z,6.39
2023-03-21T01:41:42.865Z,6.38
2023-03-21T01:47:00.493Z,6.35
2023-03-21T01:52:23.608Z,6.39
2023-03-21T01:57:58.198Z,6.42
2023-03-21T02:03:16.934Z,6.41
2023-03-21T02:08:36.834Z,6.40
2023-03-21T02:13:42.141Z,6.40
2023-03-21T02:19:32.908Z,6.42
2023-03-21T02:25:01.406Z,6.42
2023-03-21T02:30:52.745Z,6.40
2023-03-21T02:36:27.362Z,6.40
2023-03-21T02:41:48.698Z,6.41
2023-03-21T02:47:13.379Z,6.45
2023-03-21T02:52:35.553Z,6.47
2023-03-21T02:57:44.401Z,6.46
2023-03-21T03:02:54.574Z,6.47
2023-03-21T03:08:38.579Z,6.48
2023-03-21T03:14:38.539Z,6.43
2023-03-21T03:20:35.957Z,6.41
2023-03-21T03:26:14.301Z,6.39
2023-03-21T03:31:26.250Z,6.38
2023-03-21T03:36:39.259Z,6.38
2023-03-21T03:42:12.540Z,6.40
2023-03-21T03:47:37.986Z,6.41
2023-03-21T03:52:56.548Z,6.41
2023-03-21T03:58:04.731Z,6.39
2023-03-21T04:03:12.967Z,6.38
2023-03-21T04:08:17.357Z,6.40
2023-03-21T04:13:20.295Z,6.41
2023-03-21T04:18:23.960Z,6.44
2023-03-21T04:23:26.732Z,6.58
2023-03-21T04:28:29.573Z,6.73
2023-03-21T04:33:32.683Z,6.88
2023-03-21T04:38:36.454Z,6.99
2023-03-21T04:43:39.220Z,7.05
2023-03-21T04:48:42.031Z,7.06
2023-03-21T04:53:46.073Z,7.07
2023-03-21T04:58:48.781Z,7.07
2023-03-21T05:03:52.321Z,7.10
2023-03-21T05:09:00.041Z,7.16
2023-03-21T05:14:04.654Z,7.19
2023-03-21T05:19:07.377Z,7.24
2023-03-21T05:24:17.255Z,7.26
2023-03-21T05:29:20.347Z,7.29
2023-03-21T05:34:23.378Z,7.32
2023-03-21T05:39:26.119Z,7.36
2023-03-21T05:44:28.832Z,7.37
2023-03-21T05:49:31.776Z,7.40
2023-03-21T05:54:34.648Z,7.46
2023-03-21T05:59:37.421Z,7.57
2023-03-21T06:04:40.263Z,7.66
2023-03-21T06:09:43.139Z,7.70
2023-03-21T06:14:46.206Z,7.70
2023-03-21T06:19:49.042Z,7.84
2023-03-21T06:24:51.817Z,8.02
2023-03-21T06:29:54.671Z,8.16
2023-03-21T06:34:57.713Z,8.20
2023-03-21T06:40:00.664Z,8.23
2023-03-21T06:45:03.744Z,8.24
2023-03-21T06:50:07.179Z,8.19
2023-03-21T06:55:11.247Z,8.13
2023-03-21T07:00:16.789Z,8.10
2023-03-21T07:05:19.660Z,8.05
2023-03-21T07:10:22.424Z,7.97
2023-03-21T07:15:26.249Z,7.92
2023-03-21T07:20:29.061Z,7.89
2023-03-21T07:25:32.049Z,7.91
2023-03-21T07:30:37.968Z,7.86
2023-03-21T07:35:41.751Z,7.80
2023-03-21T07:46:24.757Z,7.88
2023-03-21T07:51:27.539Z,8.05
2023-03-21T07:56:31.473Z,8.26
2023-03-21T08:01:34.248Z,8.41
2023-03-21T08:06:37.021Z,9.86
2023-03-21T08:11:40.388Z,12.03
2023-03-21T08:16:43.252Z,13.41
2023-03-21T08:21:46.480Z,13.66
2023-03-21T08:26:49.453Z,14.56
2023-03-21T08:31:55.246Z,14.93
2023-03-21T08:36:58.052Z,13.90
2023-03-21T08:42:00.941Z,13.14
2023-03-21T08:47:03.882Z,12.67
2023-03-21T08:52:06.957Z,12.15
2023-03-21T08:57:12.320Z,11.63
2023-03-21T09:02:17.149Z,11.04
2023-03-21T09:07:20.393Z,10.62
2023-03-21T09:12:23.450Z,10.52
2023-03-21T09:17:27.101Z,10.62
2023-03-21T09:22:29.967Z,10.62
2023-03-21T09:27:33.595Z,10.30
2023-03-21T09:32:37.204Z,10.04
2023-03-21T09:37:42.444Z,9.99
2023-03-21T09:43:35.854Z,10.08
2023-03-21T09:48:56.822Z,10.16
2023-03-21T09:54:08.763Z,10.36
2023-03-21T09:59:23.400Z,10.45
2023-03-21T10:04:27.870Z,10.37
2023-03-21T10:09:34.568Z,10.40
2023-03-21T10:14:52.187Z,10.55
2023-03-21T10:20:12.243Z,10.56
2023-03-21T10:25:23.106Z,10.55
2023-03-21T10:30:55.628Z,10.54
2023-03-21T10:36:38.598Z,10.30
2023-03-21T10:41:41.444Z,9.95
2023-03-21T10:46:54.964Z,9.76
2023-03-21T10:52:01.496Z,9.62
2023-03-21T10:57:22.588Z,9.48
2023-03-21T11:02:31.583Z,9.38
2023-03-21T11:07:43.259Z,9.28
2023-03-21T11:12:49.256Z,9.33
2023-03-21T11:17:52.102Z,9.49
2023-03-21T11:22:56.685Z,9.70
2023-03-21T11:28:06.558Z,9.84
2023-03-21T11:33:09.801Z,9.85
2023-03-21T11:38:27.556Z,9.81
2023-03-21T11:43:40.506Z,9.67
2023-03-21T11:48:47.079Z,9.57
2023-03-21T11:54:12.787Z,9.78
2023-03-21T11:59:28.332Z,10.04
2023-03-21T12:04:42.036Z,10.12
2023-03-21T12:09:51.078Z,10.21
2023-03-21T12:15:31.172Z,10.08
2023-03-21T12:20:55.887Z,9.72
2023-03-21T12:26:21.121Z,9.54
2023-03-21T12:31:56.781Z,9.38
2023-03-21T12:37:18.217Z,9.42
2023-03-21T12:42:43.498Z,9.62
2023-03-21T12:47:56.242Z,9.69
2023-03-21T12:53:06.352Z,9.50
2023-03-21T12:58:19.012Z,9.44
2023-03-21T13:03:30.665Z,9.48
2023-03-21T13:08:49.737Z,9.64
2023-03-21T13:14:06.720Z,9.82
2023-03-21T13:19:37.209Z,9.99
2023-03-21T13:24:49.017Z,10.06
2023-03-21T13:29:54.735Z,10.19
2023-03-21T13:35:13.879Z,10.27
2023-03-21T13:40:29.144Z,10.26
2023-03-21T13:45:44.834Z,10.30
2023-03-21T13:51:00.746Z,10.27
2023-03-21T13:56:21.822Z,10.29
2023-03-21T14:01:31.010Z,10.33
2023-03-21T14:06:49.029Z,10.19
2023-03-21T14:11:56.507Z,10.02
2023-03-21T14:17:01.812Z,9.64
2023-03-21T14:22:12.177Z,9.34
2023-03-21T14:27:15.983Z,9.11
2023-03-21T14:32:23.609Z,9.03
2023-03-21T14:37:43.751Z,8.93
2023-03-21T14:42:48.750Z,8.87
2023-03-21T14:48:13.327Z,8.87
2023-03-21T14:53:20.609Z,8.88
2023-03-21T14:58:23.735Z,8.86
2023-03-21T15:03:28.149Z,8.84
2023-03-21T15:08:31.306Z,8.76
2023-03-21T15:13:45.706Z,8.74
2023-03-21T15:18:49.845Z,8.71
2023-03-21T15:24:04.428Z,8.68
2023-03-21T15:29:07.764Z,8.61
2023-03-21T15:34:27.735Z,8.55
2023-03-21T15:39:30.587Z,8.49
2023-03-21T15:44:35.200Z,8.44
2023-03-21T15:49:42.378Z,8.43
2023-03-21T15:54:50.933Z,8.42
2023-03-21T16:00:00.816Z,8.92
2023-03-21T16:05:29.248Z,9.38
2023-03-21T16:10:39.158Z,9.04
2023-03-21T16:15:42.577Z,8.72
2023-03-21T16:20:47.176Z,8.60
2023-03-21T16:25:56.079Z,8.54
2023-03-21T16:30:58.949Z,8.26
2023-03-21T16:36:02.853Z,7.97
2023-03-21T16:41:10.420Z,7.70
2023-03-21T16:46:27.557Z,7.46
2023-03-21T16:51:35.845Z,7.29
2023-03-21T16:56:56.457Z,7.17
2023-03-21T17:01:59.285Z,7.02
2023-03-21T17:07:02.058Z,6.85
2023-03-21T17:12:09.784Z,6.68
2023-03-21T17:17:17.570Z,6.50
2023-03-21T17:22:20.370Z,6.33
2023-03-21T17:27:23.292Z,6.16
2023-03-21T17:32:26.148Z,6.01
2023-03-21T17:37:28.952Z,5.89
2023-03-21T17:42:31.724Z,5.82
2023-03-21T17:47:35.729Z,5.73
2023-03-21T17:52:38.471Z,5.61
2023-03-21T17:57:41.450Z,5.49
2023-03-21T18:02:44.238Z,5.39
2023-03-21T18:13:11.798Z,5.27
2023-03-21T18:18:14.787Z,5.20
2023-03-21T18:23:18.858Z,5.10
2023-03-21T18:28:22.336Z,5.00
2023-03-21T18:33:25.355Z,4.92
2023-03-21T18:38:28.880Z,4.85
2023-03-21T18:44:02.845Z,4.76
2023-03-21T18:48:55.504Z,4.66
2023-03-21T18:54:00.863Z,4.56
2023-03-21T18:59:05.177Z,4.49
2023-03-21T19:04:21.309Z,4.40
2023-03-21T19:09:31.231Z,4.33
2023-03-21T19:14:34.681Z,4.28
2023-03-21T19:19:38.522Z,4.22
2023-03-21T19:24:41.531Z,4.15
2023-03-21T19:29:56.991Z,4.09
2023-03-21T19:35:07.529Z,4.04
2023-03-21T19:40:10.682Z,4.02
2023-03-21T19:45:13.511Z,3.94
2023-03-21T19:55:39.452Z,3.82
2023-03-21T20:00:42.292Z,3.81
2023-03-21T20:05:45.903Z,3.84
2023-03-21T20:10:48.734Z,3.86
2023-03-21T20:15:55.448Z,3.84
2023-03-21T20:21:00.714Z,3.79
2023-03-21T20:26:09.405Z,3.75
2023-03-21T20:31:16.887Z,3.74
2023-03-21T20:36:40.437Z,3.69
2023-03-21T20:41:44.007Z,3.62
2023-03-21T20:46:47.734Z,3.59
2023-03-21T20:52:47.819Z,3.58
2023-03-21T20:57:13.404Z,3.52
2023-03-21T21:02:16.138Z,3.44
2023-03-21T21:07:23.114Z,3.38
2023-03-21T21:12:28.884Z,3.38
2023-03-21T21:18:03.572Z,3.41
2023-03-21T21:23:00.149Z,3.42
2023-03-21T21:28:09.332Z,3.37
2023-03-21T21:33:14.550Z,3.30
2023-03-21T21:38:19.332Z,3.25
2023-03-21T21:43:23.117Z,3.22
2023-03-21T21:48:27.137Z,3.19
2023-03-21T21:53:33.747Z,3.15
2023-03-21T21:58:46.153Z,3.14
2023-03-21T22:03:51.719Z,3.12
2023-03-21T22:08:54.442Z,3.08
2023-03-21T22:13:57.225Z,3.03
2023-03-21T22:18:59.947Z,2.99
2023-03-21T22:24:02.681Z,2.95
2023-03-21T22:29:08.712Z,2.85
2023-03-21T22:34:11.524Z,2.75
2023-03-21T22:39:14.252Z,2.68
2023-03-21T22:44:17.012Z,2.70
2023-03-21T22:49:19.829Z,2.76
2023-03-21T22:54:22.591Z,2.79
2023-03-21T22:59:26.738Z,2.80
2023-03-21T23:04:29.646Z,2.82
2023-03-21T23:09:32.634Z,2.85
2023-03-21T23:14:35.525Z,2.84
2023-03-21T23:19:40.894Z,2.79
2023-03-21T23:24:43.918Z,2.72
2023-03-21T23:29:47.219Z,2.63
2023-03-21T23:34:50.506Z,2.53
2023-03-21T23:39:55.298Z,2.44
2023-03-21T23:44:58.020Z,2.40
2023-03-21T23:50:00.844Z,2.40
2023-03-21T23:55:05.820Z,2.41
